sensor_id;sensor_type;location;lat;lon;timestamp;P1;durP1;ratioP1;P2;durP2;ratioP2
42754;SDS011;28407;51.830;5.684;2023-07-28T00:01:52;4.97;;;3.38;;
42754;SDS011;28407;51.830;5.684;2023-07-28T00:03:53;3.38;;;2.90;;
42754;SDS011;28407;51.830;5.684;2023-07-28T00:05:53;4.05;;;3.67;;
42754;SDS011;28407;51.830;5.684;2023-07-28T00:07:54;3.83;;;3.42;;
42754;SDS011;28407;51.830;5.684;2023-07-28T00:09:55;3.42;;;3.13;;
42754;SDS011;28407;51.830;5.684;2023-07-28T00:11:56;3.63;;;3.33;;
42754;SDS011;28407;51.830;5.684;2023-07-28T00:13:58;3.67;;;3.25;;
42754;SDS011;28407;51.830;5.684;2023-07-28T00:15:59;3.58;;;3.28;;
42754;SDS011;28407;51.830;5.684;2023-07-28T00:17:59;3.90;;;3.50;;
42754;SDS011;28407;51.830;5.684;2023-07-28T00:20:02;3.75;;;3.20;;
42754;SDS011;28407;51.830;5.684;2023-07-28T00:22:03;3.30;;;3.00;;
42754;SDS011;28407;51.830;5.684;2023-07-28T00:24:03;3.95;;;3.30;;
42754;SDS011;28407;51.830;5.684;2023-07-28T00:26:05;3.47;;;2.90;;
42754;SDS011;28407;51.830;5.684;2023-07-28T00:30:07;3.35;;;2.95;;
42754;SDS011;28407;51.830;5.684;2023-07-28T00:32:08;4.87;;;3.83;;
42754;SDS011;28407;51.830;5.684;2023-07-28T00:34:10;3.75;;;3.20;;
42754;SDS011;28407;51.830;5.684;2023-07-28T00:36:11;3.60;;;3.08;;
42754;SDS011;28407;51.830;5.684;2023-07-28T00:38:12;3.08;;;2.78;;
42754;SDS011;28407;51.830;5.684;2023-07-28T00:40:12;3.20;;;2.90;;
42754;SDS011;28407;51.830;5.684;2023-07-28T00:42:13;3.28;;;2.80;;
42754;SDS011;28407;51.830;5.684;2023-07-28T00:44:14;3.70;;;2.78;;
42754;SDS011;28407;51.830;5.684;2023-07-28T00:46:16;3.45;;;3.15;;
42754;SDS011;28407;51.830;5.684;2023-07-28T00:48:17;3.78;;;3.03;;
42754;SDS011;28407;51.830;5.684;2023-07-28T00:50:20;3.30;;;3.00;;
42754;SDS011;28407;51.830;5.684;2023-07-28T00:52:21;3.10;;;2.80;;
42754;SDS011;28407;51.830;5.684;2023-07-28T00:54:22;5.95;;;3.95;;
42754;SDS011;28407;51.830;5.684;2023-07-28T00:56:23;3.45;;;2.80;;
42754;SDS011;28407;51.830;5.684;2023-07-28T00:58:24;3.80;;;2.97;;
42754;SDS011;28407;51.830;5.684;2023-07-28T01:00:25;3.70;;;3.00;;
42754;SDS011;28407;51.830;5.684;2023-07-28T01:02:25;4.07;;;2.90;;
42754;SDS011;28407;51.830;5.684;2023-07-28T01:04:26;3.63;;;3.15;;
42754;SDS011;28407;51.830;5.684;2023-07-28T01:06:33;3.22;;;2.92;;
42754;SDS011;28407;51.830;5.684;2023-07-28T01:08:56;3.05;;;2.75;;
42754;SDS011;28407;51.830;5.684;2023-07-28T01:11:03;4.03;;;3.50;;
42754;SDS011;28407;51.830;5.684;2023-07-28T01:13:04;3.88;;;3.03;;
42754;SDS011;28407;51.830;5.684;2023-07-28T01:15:05;3.58;;;2.97;;
42754;SDS011;28407;51.830;5.684;2023-07-28T01:17:06;3.85;;;3.00;;
42754;SDS011;28407;51.830;5.684;2023-07-28T01:19:07;3.72;;;3.08;;
42754;SDS011;28407;51.830;5.684;2023-07-28T01:21:12;3.33;;;2.75;;
42754;SDS011;28407;51.830;5.684;2023-07-28T01:23:20;4.00;;;3.10;;
42754;SDS011;28407;51.830;5.684;2023-07-28T01:27:49;3.78;;;3.17;;
42754;SDS011;28407;51.830;5.684;2023-07-28T01:29:51;4.40;;;3.67;;
42754;SDS011;28407;51.830;5.684;2023-07-28T01:31:52;4.20;;;3.60;;
42754;SDS011;28407;51.830;5.684;2023-07-28T01:33:53;3.38;;;2.90;;
42754;SDS011;28407;51.830;5.684;2023-07-28T01:35:53;3.72;;;3.33;;
42754;SDS011;28407;51.830;5.684;2023-07-28T01:37:54;3.92;;;3.15;;
42754;SDS011;28407;51.830;5.684;2023-07-28T01:39:55;3.92;;;2.92;;
42754;SDS011;28407;51.830;5.684;2023-07-28T01:43:58;4.97;;;2.90;;
42754;SDS011;28407;51.830;5.684;2023-07-28T01:45:59;3.17;;;2.65;;
42754;SDS011;28407;51.830;5.684;2023-07-28T01:47:59;3.85;;;3.40;;
42754;SDS011;28407;51.830;5.684;2023-07-28T01:50:00;4.22;;;3.15;;
42754;SDS011;28407;51.830;5.684;2023-07-28T01:52:01;4.30;;;3.13;;
42754;SDS011;28407;51.830;5.684;2023-07-28T01:54:02;5.70;;;3.50;;
42754;SDS011;28407;51.830;5.684;2023-07-28T01:56:03;4.07;;;3.40;;
42754;SDS011;28407;51.830;5.684;2023-07-28T01:58:03;4.35;;;3.47;;
42754;SDS011;28407;51.830;5.684;2023-07-28T02:00:04;3.88;;;3.42;;
42754;SDS011;28407;51.830;5.684;2023-07-28T02:02:13;4.93;;;4.13;;
42754;SDS011;28407;51.830;5.684;2023-07-28T02:04:15;3.97;;;3.33;;
42754;SDS011;28407;51.830;5.684;2023-07-28T02:06:16;4.80;;;4.22;;
42754;SDS011;28407;51.830;5.684;2023-07-28T02:08:17;4.07;;;3.30;;
42754;SDS011;28407;51.830;5.684;2023-07-28T02:10:17;4.18;;;3.25;;
42754;SDS011;28407;51.830;5.684;2023-07-28T02:12:18;4.43;;;3.70;;
42754;SDS011;28407;51.830;5.684;2023-07-28T02:14:19;5.43;;;3.83;;
42754;SDS011;28407;51.830;5.684;2023-07-28T02:16:20;4.82;;;3.17;;
42754;SDS011;28407;51.830;5.684;2023-07-28T02:18:20;4.75;;;4.18;;
42754;SDS011;28407;51.830;5.684;2023-07-28T02:20:21;5.22;;;3.75;;
42754;SDS011;28407;51.830;5.684;2023-07-28T02:22:22;4.55;;;3.40;;
42754;SDS011;28407;51.830;5.684;2023-07-28T02:24:22;4.88;;;4.00;;
42754;SDS011;28407;51.830;5.684;2023-07-28T02:26:23;4.70;;;3.83;;
42754;SDS011;28407;51.830;5.684;2023-07-28T02:28:24;6.35;;;3.67;;
42754;SDS011;28407;51.830;5.684;2023-07-28T02:30:24;4.82;;;3.35;;
42754;SDS011;28407;51.830;5.684;2023-07-28T02:32:26;4.75;;;3.42;;
42754;SDS011;28407;51.830;5.684;2023-07-28T02:34:28;5.38;;;4.15;;
42754;SDS011;28407;51.830;5.684;2023-07-28T02:36:29;4.80;;;3.88;;
42754;SDS011;28407;51.830;5.684;2023-07-28T02:38:31;5.07;;;3.47;;
42754;SDS011;28407;51.830;5.684;2023-07-28T02:40:32;4.82;;;3.40;;
42754;SDS011;28407;51.830;5.684;2023-07-28T02:42:33;5.25;;;3.60;;
42754;SDS011;28407;51.830;5.684;2023-07-28T02:44:35;4.47;;;3.78;;
42754;SDS011;28407;51.830;5.684;2023-07-28T02:46:36;4.88;;;3.42;;
42754;SDS011;28407;51.830;5.684;2023-07-28T02:48:37;4.20;;;3.45;;
42754;SDS011;28407;51.830;5.684;2023-07-28T02:50:38;4.88;;;3.63;;
42754;SDS011;28407;51.830;5.684;2023-07-28T02:52:38;9.50;;;4.05;;
42754;SDS011;28407;51.830;5.684;2023-07-28T02:54:39;4.10;;;3.20;;
42754;SDS011;28407;51.830;5.684;2023-07-28T02:56:40;5.18;;;3.53;;
42754;SDS011;28407;51.830;5.684;2023-07-28T02:58:44;5.20;;;3.95;;
42754;SDS011;28407;51.830;5.684;2023-07-28T03:00:45;5.07;;;3.90;;
42754;SDS011;28407;51.830;5.684;2023-07-28T03:02:49;5.10;;;3.80;;
42754;SDS011;28407;51.830;5.684;2023-07-28T03:04:50;4.95;;;4.03;;
42754;SDS011;28407;51.830;5.684;2023-07-28T03:06:50;4.95;;;3.72;;
42754;SDS011;28407;51.830;5.684;2023-07-28T03:08:51;5.15;;;3.85;;
42754;SDS011;28407;51.830;5.684;2023-07-28T03:11:21;5.28;;;3.15;;
42754;SDS011;28407;51.830;5.684;2023-07-28T03:13:23;4.93;;;3.70;;
42754;SDS011;28407;51.830;5.684;2023-07-28T03:15:24;6.35;;;3.90;;
42754;SDS011;28407;51.830;5.684;2023-07-28T03:17:24;4.78;;;3.60;;
42754;SDS011;28407;51.830;5.684;2023-07-28T03:19:25;4.93;;;3.60;;
42754;SDS011;28407;51.830;5.684;2023-07-28T03:21:29;5.85;;;3.67;;
42754;SDS011;28407;51.830;5.684;2023-07-28T03:23:30;5.18;;;3.60;;
42754;SDS011;28407;51.830;5.684;2023-07-28T03:25:31;8.45;;;4.25;;
42754;SDS011;28407;51.830;5.684;2023-07-28T03:27:31;5.53;;;3.67;;
42754;SDS011;28407;51.830;5.684;2023-07-28T03:29:32;5.15;;;3.47;;
42754;SDS011;28407;51.830;5.684;2023-07-28T03:31:33;5.70;;;3.42;;
42754;SDS011;28407;51.830;5.684;2023-07-28T03:33:36;5.20;;;4.05;;
42754;SDS011;28407;51.830;5.684;2023-07-28T03:35:37;5.07;;;3.40;;
42754;SDS011;28407;51.830;5.684;2023-07-28T03:37:42;6.47;;;4.18;;
42754;SDS011;28407;51.830;5.684;2023-07-28T03:39:43;5.22;;;3.72;;
42754;SDS011;28407;51.830;5.684;2023-07-28T03:41:43;4.97;;;3.53;;
42754;SDS011;28407;51.830;5.684;2023-07-28T03:43:44;5.22;;;3.70;;
42754;SDS011;28407;51.830;5.684;2023-07-28T03:45:45;6.80;;;3.97;;
42754;SDS011;28407;51.830;5.684;2023-07-28T03:47:46;6.85;;;4.63;;
42754;SDS011;28407;51.830;5.684;2023-07-28T03:49:47;6.18;;;3.75;;
42754;SDS011;28407;51.830;5.684;2023-07-28T03:51:48;5.68;;;4.43;;
42754;SDS011;28407;51.830;5.684;2023-07-28T03:53:48;6.45;;;4.28;;
42754;SDS011;28407;51.830;5.684;2023-07-28T03:55:49;5.85;;;4.53;;
42754;SDS011;28407;51.830;5.684;2023-07-28T03:57:49;8.40;;;4.15;;
42754;SDS011;28407;51.830;5.684;2023-07-28T03:59:50;7.97;;;4.88;;
42754;SDS011;28407;51.830;5.684;2023-07-28T04:01:51;7.20;;;5.45;;
42754;SDS011;28407;51.830;5.684;2023-07-28T04:03:53;8.18;;;4.82;;
42754;SDS011;28407;51.830;5.684;2023-07-28T04:05:53;6.00;;;4.32;;
42754;SDS011;28407;51.830;5.684;2023-07-28T04:07:54;7.13;;;5.22;;
42754;SDS011;28407;51.830;5.684;2023-07-28T04:09:55;9.85;;;4.72;;
42754;SDS011;28407;51.830;5.684;2023-07-28T04:11:55;7.35;;;5.68;;
42754;SDS011;28407;51.830;5.684;2023-07-28T04:13:56;7.90;;;4.78;;
42754;SDS011;28407;51.830;5.684;2023-07-28T04:15:57;7.03;;;4.65;;
42754;SDS011;28407;51.830;5.684;2023-07-28T04:17:57;8.25;;;5.18;;
42754;SDS011;28407;51.830;5.684;2023-07-28T04:19:58;7.47;;;4.90;;
42754;SDS011;28407;51.830;5.684;2023-07-28T04:22:00;7.53;;;4.78;;
42754;SDS011;28407;51.830;5.684;2023-07-28T04:24:01;7.57;;;5.40;;
42754;SDS011;28407;51.830;5.684;2023-07-28T04:26:02;7.22;;;5.22;;
42754;SDS011;28407;51.830;5.684;2023-07-28T04:28:04;9.13;;;5.28;;
42754;SDS011;28407;51.830;5.684;2023-07-28T04:30:05;7.90;;;5.10;;
42754;SDS011;28407;51.830;5.684;2023-07-28T04:32:06;9.68;;;6.00;;
42754;SDS011;28407;51.830;5.684;2023-07-28T04:34:07;8.30;;;6.18;;
42754;SDS011;28407;51.830;5.684;2023-07-28T04:36:33;8.98;;;5.85;;
42754;SDS011;28407;51.830;5.684;2023-07-28T04:38:34;9.20;;;5.47;;
42754;SDS011;28407;51.830;5.684;2023-07-28T04:40:35;8.07;;;5.90;;
42754;SDS011;28407;51.830;5.684;2023-07-28T04:42:36;11.93;;;6.30;;
42754;SDS011;28407;51.830;5.684;2023-07-28T04:44:37;9.83;;;6.93;;
42754;SDS011;28407;51.830;5.684;2023-07-28T04:46:40;8.20;;;6.05;;
42754;SDS011;28407;51.830;5.684;2023-07-28T04:48:46;8.98;;;6.00;;
42754;SDS011;28407;51.830;5.684;2023-07-28T04:51:05;9.98;;;6.25;;
42754;SDS011;28407;51.830;5.684;2023-07-28T04:53:34;8.73;;;6.70;;
42754;SDS011;28407;51.830;5.684;2023-07-28T04:55:45;9.20;;;6.15;;
42754;SDS011;28407;51.830;5.684;2023-07-28T04:57:46;9.35;;;6.55;;
42754;SDS011;28407;51.830;5.684;2023-07-28T04:59:46;8.55;;;5.68;;
42754;SDS011;28407;51.830;5.684;2023-07-28T05:01:47;9.05;;;6.53;;
42754;SDS011;28407;51.830;5.684;2023-07-28T05:03:48;9.75;;;6.90;;
42754;SDS011;28407;51.830;5.684;2023-07-28T05:05:57;9.02;;;6.40;;
42754;SDS011;28407;51.830;5.684;2023-07-28T05:07:57;9.48;;;6.30;;
42754;SDS011;28407;51.830;5.684;2023-07-28T05:09:58;8.85;;;6.22;;
42754;SDS011;28407;51.830;5.684;2023-07-28T05:12:01;10.07;;;6.82;;
42754;SDS011;28407;51.830;5.684;2023-07-28T05:14:04;8.60;;;6.47;;
42754;SDS011;28407;51.830;5.684;2023-07-28T05:16:08;9.00;;;6.78;;
42754;SDS011;28407;51.830;5.684;2023-07-28T05:18:28;9.70;;;6.22;;
42754;SDS011;28407;51.830;5.684;2023-07-28T05:20:57;9.95;;;7.13;;
42754;SDS011;28407;51.830;5.684;2023-07-28T05:22:58;9.10;;;6.57;;
42754;SDS011;28407;51.830;5.684;2023-07-28T05:25:03;8.50;;;6.32;;
42754;SDS011;28407;51.830;5.684;2023-07-28T05:27:06;11.45;;;8.02;;
42754;SDS011;28407;51.830;5.684;2023-07-28T05:29:07;9.20;;;6.78;;
42754;SDS011;28407;51.830;5.684;2023-07-28T05:31:07;8.80;;;6.47;;
42754;SDS011;28407;51.830;5.684;2023-07-28T05:33:08;8.80;;;6.53;;
42754;SDS011;28407;51.830;5.684;2023-07-28T05:35:18;9.05;;;6.88;;
42754;SDS011;28407;51.830;5.684;2023-07-28T05:37:20;7.68;;;5.57;;
42754;SDS011;28407;51.830;5.684;2023-07-28T05:39:21;11.57;;;5.93;;
42754;SDS011;28407;51.830;5.684;2023-07-28T05:41:22;8.05;;;6.20;;
42754;SDS011;28407;51.830;5.684;2023-07-28T05:43:24;8.88;;;5.93;;
42754;SDS011;28407;51.830;5.684;2023-07-28T05:45:27;8.35;;;6.18;;
42754;SDS011;28407;51.830;5.684;2023-07-28T05:47:28;6.78;;;5.30;;
42754;SDS011;28407;51.830;5.684;2023-07-28T05:49:29;9.15;;;5.93;;
42754;SDS011;28407;51.830;5.684;2023-07-28T05:51:30;7.60;;;5.65;;
42754;SDS011;28407;51.830;5.684;2023-07-28T05:53:31;9.47;;;6.23;;
42754;SDS011;28407;51.830;5.684;2023-07-28T05:55:37;8.85;;;6.47;;
42754;SDS011;28407;51.830;5.684;2023-07-28T05:57:37;10.88;;;6.47;;
42754;SDS011;28407;51.830;5.684;2023-07-28T05:59:41;8.88;;;6.22;;
42754;SDS011;28407;51.830;5.684;2023-07-28T06:01:41;8.35;;;6.32;;
42754;SDS011;28407;51.830;5.684;2023-07-28T06:03:42;12.68;;;7.82;;
42754;SDS011;28407;51.830;5.684;2023-07-28T06:05:49;8.50;;;6.00;;
42754;SDS011;28407;51.830;5.684;2023-07-28T06:07:50;15.55;;;8.35;;
42754;SDS011;28407;51.830;5.684;2023-07-28T06:09:51;8.95;;;6.05;;
42754;SDS011;28407;51.830;5.684;2023-07-28T06:11:52;8.77;;;6.10;;
42754;SDS011;28407;51.830;5.684;2023-07-28T06:13:53;10.50;;;6.28;;
42754;SDS011;28407;51.830;5.684;2023-07-28T06:15:54;9.95;;;6.15;;
42754;SDS011;28407;51.830;5.684;2023-07-28T06:17:56;9.93;;;7.13;;
42754;SDS011;28407;51.830;5.684;2023-07-28T06:19:57;9.93;;;7.85;;
42754;SDS011;28407;51.830;5.684;2023-07-28T06:21:58;11.55;;;6.95;;
42754;SDS011;28407;51.830;5.684;2023-07-28T06:23:59;12.45;;;7.32;;
42754;SDS011;28407;51.830;5.684;2023-07-28T06:26:00;9.30;;;6.53;;
42754;SDS011;28407;51.830;5.684;2023-07-28T06:28:00;11.32;;;7.35;;
42754;SDS011;28407;51.830;5.684;2023-07-28T06:30:01;12.02;;;7.25;;
42754;SDS011;28407;51.830;5.684;2023-07-28T06:32:02;10.60;;;8.17;;
42754;SDS011;28407;51.830;5.684;2023-07-28T06:34:03;9.77;;;7.72;;
42754;SDS011;28407;51.830;5.684;2023-07-28T06:36:04;9.45;;;6.28;;
42754;SDS011;28407;51.830;5.684;2023-07-28T06:38:05;9.45;;;7.35;;
42754;SDS011;28407;51.830;5.684;2023-07-28T06:40:06;10.48;;;6.32;;
42754;SDS011;28407;51.830;5.684;2023-07-28T06:42:09;10.10;;;6.35;;
42754;SDS011;28407;51.830;5.684;2023-07-28T06:44:12;11.52;;;7.47;;
42754;SDS011;28407;51.830;5.684;2023-07-28T06:46:13;9.15;;;6.15;;
42754;SDS011;28407;51.830;5.684;2023-07-28T06:48:14;8.10;;;6.35;;
42754;SDS011;28407;51.830;5.684;2023-07-28T06:50:15;7.90;;;6.03;;
42754;SDS011;28407;51.830;5.684;2023-07-28T06:52:15;8.57;;;6.28;;
42754;SDS011;28407;51.830;5.684;2023-07-28T06:54:18;9.02;;;6.03;;
42754;SDS011;28407;51.830;5.684;2023-07-28T06:56:19;8.23;;;5.93;;
42754;SDS011;28407;51.830;5.684;2023-07-28T06:58:19;9.50;;;6.40;;
42754;SDS011;28407;51.830;5.684;2023-07-28T07:00:20;9.68;;;6.47;;
42754;SDS011;28407;51.830;5.684;2023-07-28T07:02:21;10.05;;;5.72;;
42754;SDS011;28407;51.830;5.684;2023-07-28T07:04:22;8.98;;;6.07;;
42754;SDS011;28407;51.830;5.684;2023-07-28T07:06:23;9.20;;;6.57;;
42754;SDS011;28407;51.830;5.684;2023-07-28T07:08:23;7.57;;;5.18;;
42754;SDS011;28407;51.830;5.684;2023-07-28T07:10:24;8.07;;;5.70;;
42754;SDS011;28407;51.830;5.684;2023-07-28T07:12:25;9.38;;;5.82;;
42754;SDS011;28407;51.830;5.684;2023-07-28T07:14:26;9.35;;;6.75;;
42754;SDS011;28407;51.830;5.684;2023-07-28T07:16:26;9.30;;;6.45;;
42754;SDS011;28407;51.830;5.684;2023-07-28T07:18:27;9.23;;;6.82;;
42754;SDS011;28407;51.830;5.684;2023-07-28T07:20:28;8.35;;;6.60;;
42754;SDS011;28407;51.830;5.684;2023-07-28T07:22:28;8.25;;;6.60;;
42754;SDS011;28407;51.830;5.684;2023-07-28T07:24:29;7.40;;;6.13;;
42754;SDS011;28407;51.830;5.684;2023-07-28T07:26:30;9.18;;;6.03;;
42754;SDS011;28407;51.830;5.684;2023-07-28T07:28:33;8.82;;;6.57;;
42754;SDS011;28407;51.830;5.684;2023-07-28T07:30:35;10.25;;;6.85;;
42754;SDS011;28407;51.830;5.684;2023-07-28T07:32:36;9.40;;;6.97;;
42754;SDS011;28407;51.830;5.684;2023-07-28T07:34:36;8.73;;;6.10;;
42754;SDS011;28407;51.830;5.684;2023-07-28T07:36:38;10.18;;;6.60;;
42754;SDS011;28407;51.830;5.684;2023-07-28T07:38:39;7.82;;;5.97;;
42754;SDS011;28407;51.830;5.684;2023-07-28T07:40:41;9.23;;;5.50;;
42754;SDS011;28407;51.830;5.684;2023-07-28T07:42:48;9.50;;;6.88;;
42754;SDS011;28407;51.830;5.684;2023-07-28T07:44:49;9.93;;;6.55;;
42754;SDS011;28407;51.830;5.684;2023-07-28T07:46:50;9.57;;;6.22;;
42754;SDS011;28407;51.830;5.684;2023-07-28T07:48:50;8.05;;;6.20;;
42754;SDS011;28407;51.830;5.684;2023-07-28T07:50:51;7.82;;;6.03;;
42754;SDS011;28407;51.830;5.684;2023-07-28T07:52:52;7.60;;;5.70;;
42754;SDS011;28407;51.830;5.684;2023-07-28T07:54:52;9.30;;;5.80;;
42754;SDS011;28407;51.830;5.684;2023-07-28T07:56:53;7.45;;;6.07;;
42754;SDS011;28407;51.830;5.684;2023-07-28T07:58:54;7.88;;;5.20;;
42754;SDS011;28407;51.830;5.684;2023-07-28T08:00:55;8.43;;;6.20;;
42754;SDS011;28407;51.830;5.684;2023-07-28T08:02:56;8.60;;;5.95;;
42754;SDS011;28407;51.830;5.684;2023-07-28T08:04:56;7.35;;;5.47;;
42754;SDS011;28407;51.830;5.684;2023-07-28T08:06:57;9.05;;;6.72;;
42754;SDS011;28407;51.830;5.684;2023-07-28T08:08:58;6.63;;;5.30;;
42754;SDS011;28407;51.830;5.684;2023-07-28T08:10:59;9.93;;;5.87;;
42754;SDS011;28407;51.830;5.684;2023-07-28T08:13:00;7.75;;;5.90;;
42754;SDS011;28407;51.830;5.684;2023-07-28T08:15:01;7.75;;;5.68;;
42754;SDS011;28407;51.830;5.684;2023-07-28T08:17:01;6.88;;;4.85;;
42754;SDS011;28407;51.830;5.684;2023-07-28T08:19:02;6.40;;;5.00;;
42754;SDS011;28407;51.830;5.684;2023-07-28T08:21:03;7.97;;;4.90;;
42754;SDS011;28407;51.830;5.684;2023-07-28T08:23:03;7.75;;;5.85;;
42754;SDS011;28407;51.830;5.684;2023-07-28T08:25:04;9.32;;;5.95;;
42754;SDS011;28407;51.830;5.684;2023-07-28T08:27:05;7.53;;;5.47;;
42754;SDS011;28407;51.830;5.684;2023-07-28T08:29:06;8.13;;;6.47;;
42754;SDS011;28407;51.830;5.684;2023-07-28T08:31:07;10.75;;;5.97;;
42754;SDS011;28407;51.830;5.684;2023-07-28T08:33:08;7.32;;;5.97;;
42754;SDS011;28407;51.830;5.684;2023-07-28T08:35:09;9.45;;;6.10;;
42754;SDS011;28407;51.830;5.684;2023-07-28T08:37:10;7.97;;;6.53;;
42754;SDS011;28407;51.830;5.684;2023-07-28T08:39:11;7.80;;;5.82;;
42754;SDS011;28407;51.830;5.684;2023-07-28T08:41:12;8.10;;;5.40;;
42754;SDS011;28407;51.830;5.684;2023-07-28T08:45:14;6.95;;;5.03;;
42754;SDS011;28407;51.830;5.684;2023-07-28T08:47:15;7.97;;;5.97;;
42754;SDS011;28407;51.830;5.684;2023-07-28T08:51:18;7.10;;;6.10;;
42754;SDS011;28407;51.830;5.684;2023-07-28T08:53:18;9.70;;;6.45;;
42754;SDS011;28407;51.830;5.684;2023-07-28T08:55:19;8.77;;;6.47;;
42754;SDS011;28407;51.830;5.684;2023-07-28T08:57:20;8.95;;;6.03;;
42754;SDS011;28407;51.830;5.684;2023-07-28T08:59:24;8.48;;;6.55;;
42754;SDS011;28407;51.830;5.684;2023-07-28T09:01:25;9.00;;;6.28;;
42754;SDS011;28407;51.830;5.684;2023-07-28T09:03:26;9.60;;;6.10;;
42754;SDS011;28407;51.830;5.684;2023-07-28T09:05:32;8.55;;;6.40;;
42754;SDS011;28407;51.830;5.684;2023-07-28T09:07:36;7.75;;;5.93;;
42754;SDS011;28407;51.830;5.684;2023-07-28T09:09:37;8.68;;;6.05;;
42754;SDS011;28407;51.830;5.684;2023-07-28T09:11:45;11.05;;;6.50;;
42754;SDS011;28407;51.830;5.684;2023-07-28T09:13:53;10.35;;;7.18;;
42754;SDS011;28407;51.830;5.684;2023-07-28T09:15:55;10.30;;;7.45;;
42754;SDS011;28407;51.830;5.684;2023-07-28T09:17:56;8.90;;;6.55;;
42754;SDS011;28407;51.830;5.684;2023-07-28T09:20:00;9.57;;;6.70;;
42754;SDS011;28407;51.830;5.684;2023-07-28T09:22:01;9.27;;;6.97;;
42754;SDS011;28407;51.830;5.684;2023-07-28T09:24:05;9.30;;;6.80;;
42754;SDS011;28407;51.830;5.684;2023-07-28T09:26:06;9.73;;;6.78;;
42754;SDS011;28407;51.830;5.684;2023-07-28T09:28:08;8.32;;;6.47;;
42754;SDS011;28407;51.830;5.684;2023-07-28T09:30:09;8.93;;;7.28;;
42754;SDS011;28407;51.830;5.684;2023-07-28T09:32:10;10.33;;;7.83;;
42754;SDS011;28407;51.830;5.684;2023-07-28T09:34:11;9.40;;;7.45;;
42754;SDS011;28407;51.830;5.684;2023-07-28T09:36:14;7.88;;;7.05;;
42754;SDS011;28407;51.830;5.684;2023-07-28T09:38:18;8.70;;;7.00;;
42754;SDS011;28407;51.830;5.684;2023-07-28T09:40:22;10.20;;;6.70;;
42754;SDS011;28407;51.830;5.684;2023-07-28T09:42:23;10.30;;;7.20;;
42754;SDS011;28407;51.830;5.684;2023-07-28T09:44:24;12.02;;;9.10;;
42754;SDS011;28407;51.830;5.684;2023-07-28T09:46:25;9.93;;;6.07;;
42754;SDS011;28407;51.830;5.684;2023-07-28T09:48:29;9.75;;;6.65;;
42754;SDS011;28407;51.830;5.684;2023-07-28T09:50:32;9.57;;;7.20;;
42754;SDS011;28407;51.830;5.684;2023-07-28T09:52:41;13.10;;;8.60;;
42754;SDS011;28407;51.830;5.684;2023-07-28T09:54:43;9.48;;;7.25;;
42754;SDS011;28407;51.830;5.684;2023-07-28T09:56:48;11.48;;;7.63;;
42754;SDS011;28407;51.830;5.684;2023-07-28T09:58:52;10.23;;;7.28;;
42754;SDS011;28407;51.830;5.684;2023-07-28T10:00:53;9.80;;;7.15;;
42754;SDS011;28407;51.830;5.684;2023-07-28T10:02:55;9.70;;;7.10;;
42754;SDS011;28407;51.830;5.684;2023-07-28T10:04:56;10.45;;;7.28;;
42754;SDS011;28407;51.830;5.684;2023-07-28T10:06:57;9.43;;;7.35;;
42754;SDS011;28407;51.830;5.684;2023-07-28T10:08:58;9.40;;;6.90;;
42754;SDS011;28407;51.830;5.684;2023-07-28T10:11:00;8.50;;;6.72;;
42754;SDS011;28407;51.830;5.684;2023-07-28T10:13:02;9.98;;;7.82;;
42754;SDS011;28407;51.830;5.684;2023-07-28T10:15:04;8.10;;;5.97;;
42754;SDS011;28407;51.830;5.684;2023-07-28T10:17:05;8.48;;;6.15;;
42754;SDS011;28407;51.830;5.684;2023-07-28T10:19:07;7.88;;;5.45;;
42754;SDS011;28407;51.830;5.684;2023-07-28T10:21:09;8.90;;;6.35;;
42754;SDS011;28407;51.830;5.684;2023-07-28T10:23:16;8.57;;;6.68;;
42754;SDS011;28407;51.830;5.684;2023-07-28T10:25:22;8.73;;;6.72;;
42754;SDS011;28407;51.830;5.684;2023-07-28T10:29:36;10.13;;;6.72;;
42754;SDS011;28407;51.830;5.684;2023-07-28T10:31:51;7.97;;;6.20;;
42754;SDS011;28407;51.830;5.684;2023-07-28T10:33:53;7.72;;;5.78;;
42754;SDS011;28407;51.830;5.684;2023-07-28T10:35:54;9.50;;;6.15;;
42754;SDS011;28407;51.830;5.684;2023-07-28T10:37:55;7.90;;;5.53;;
42754;SDS011;28407;51.830;5.684;2023-07-28T10:42:22;7.75;;;5.68;;
42754;SDS011;28407;51.830;5.684;2023-07-28T10:44:23;7.82;;;5.75;;
42754;SDS011;28407;51.830;5.684;2023-07-28T10:46:24;6.75;;;5.57;;
42754;SDS011;28407;51.830;5.684;2023-07-28T10:48:27;7.28;;;5.70;;
42754;SDS011;28407;51.830;5.684;2023-07-28T10:50:28;7.53;;;6.32;;
42754;SDS011;28407;51.830;5.684;2023-07-28T10:52:32;8.07;;;5.25;;
42754;SDS011;28407;51.830;5.684;2023-07-28T10:54:33;6.30;;;5.38;;
42754;SDS011;28407;51.830;5.684;2023-07-28T10:56:34;6.55;;;5.25;;
42754;SDS011;28407;51.830;5.684;2023-07-28T10:58:35;5.63;;;4.78;;
42754;SDS011;28407;51.830;5.684;2023-07-28T11:00:36;7.38;;;5.95;;
42754;SDS011;28407;51.830;5.684;2023-07-28T11:02:46;6.28;;;4.97;;
42754;SDS011;28407;51.830;5.684;2023-07-28T11:04:52;6.95;;;4.93;;
42754;SDS011;28407;51.830;5.684;2023-07-28T11:06:53;6.72;;;5.18;;
42754;SDS011;28407;51.830;5.684;2023-07-28T11:08:54;6.10;;;4.78;;
42754;SDS011;28407;51.830;5.684;2023-07-28T11:10:54;5.82;;;4.50;;
42754;SDS011;28407;51.830;5.684;2023-07-28T11:12:57;5.10;;;4.43;;
42754;SDS011;28407;51.830;5.684;2023-07-28T11:14:58;6.18;;;4.82;;
42754;SDS011;28407;51.830;5.684;2023-07-28T11:16:59;5.68;;;4.53;;
42754;SDS011;28407;51.830;5.684;2023-07-28T11:19:00;5.63;;;4.68;;
42754;SDS011;28407;51.830;5.684;2023-07-28T11:21:02;6.03;;;5.18;;
42754;SDS011;28407;51.830;5.684;2023-07-28T11:23:03;6.07;;;5.35;;
42754;SDS011;28407;51.830;5.684;2023-07-28T11:25:05;5.93;;;4.00;;
42754;SDS011;28407;51.830;5.684;2023-07-28T11:27:09;4.90;;;4.00;;
42754;SDS011;28407;51.830;5.684;2023-07-28T11:29:10;4.82;;;3.38;;
42754;SDS011;28407;51.830;5.684;2023-07-28T11:31:11;4.72;;;3.78;;
42754;SDS011;28407;51.830;5.684;2023-07-28T11:33:12;5.43;;;4.15;;
42754;SDS011;28407;51.830;5.684;2023-07-28T11:35:14;4.53;;;3.35;;
42754;SDS011;28407;51.830;5.684;2023-07-28T11:37:17;4.35;;;3.33;;
42754;SDS011;28407;51.830;5.684;2023-07-28T11:39:18;6.45;;;3.47;;
42754;SDS011;28407;51.830;5.684;2023-07-28T11:41:21;6.15;;;3.58;;
42754;SDS011;28407;51.830;5.684;2023-07-28T11:43:23;4.38;;;3.47;;
42754;SDS011;28407;51.830;5.684;2023-07-28T11:45:24;4.38;;;3.10;;
42754;SDS011;28407;51.830;5.684;2023-07-28T11:47:25;3.70;;;2.80;;
42754;SDS011;28407;51.830;5.684;2023-07-28T11:49:25;4.28;;;2.90;;
42754;SDS011;28407;51.830;5.684;2023-07-28T11:51:27;4.93;;;3.50;;
42754;SDS011;28407;51.830;5.684;2023-07-28T11:53:28;4.72;;;2.88;;
42754;SDS011;28407;51.830;5.684;2023-07-28T11:55:34;4.03;;;2.67;;
42754;SDS011;28407;51.830;5.684;2023-07-28T11:57:36;4.28;;;3.00;;
42754;SDS011;28407;51.830;5.684;2023-07-28T11:59:36;3.92;;;2.72;;
42754;SDS011;28407;51.830;5.684;2023-07-28T12:01:56;3.67;;;2.58;;
42754;SDS011;28407;51.830;5.684;2023-07-28T12:03:58;4.30;;;2.75;;
42754;SDS011;28407;51.830;5.684;2023-07-28T12:08:06;3.25;;;2.35;;
42754;SDS011;28407;51.830;5.684;2023-07-28T12:10:07;2.95;;;2.10;;
42754;SDS011;28407;51.830;5.684;2023-07-28T12:12:12;4.03;;;3.20;;
42754;SDS011;28407;51.830;5.684;2023-07-28T12:14:13;8.40;;;3.03;;
42754;SDS011;28407;51.830;5.684;2023-07-28T12:16:34;3.72;;;2.75;;
42754;SDS011;28407;51.830;5.684;2023-07-28T12:18:40;4.43;;;3.20;;
42754;SDS011;28407;51.830;5.684;2023-07-28T12:20:44;4.53;;;3.30;;
42754;SDS011;28407;51.830;5.684;2023-07-28T12:22:50;4.40;;;3.63;;
42754;SDS011;28407;51.830;5.684;2023-07-28T12:24:50;4.10;;;3.47;;
42754;SDS011;28407;51.830;5.684;2023-07-28T12:26:51;4.50;;;3.30;;
42754;SDS011;28407;51.830;5.684;2023-07-28T12:28:52;5.25;;;3.42;;
42754;SDS011;28407;51.830;5.684;2023-07-28T12:30:52;4.85;;;3.83;;
42754;SDS011;28407;51.830;5.684;2023-07-28T12:32:55;5.15;;;3.95;;